Time;durP1;ratioP1;P1;durP2;ratioP2;P2;SDS_P1;SDS_P2;PMS_P1;PMS_P2;Temp;Humidity;BMP_temperature;BMP_pressure;BME280_temperature;BME280_humidity;BME280_pressure;Samples;Min_cycle;Max_cycle;Signal;HPM_P1;HPM_P2
2022/05/15 00:06:31;;;;;;;4.78;1.52;;;;;;;15.11;52.56;96986.31;6299680;22;20042;-78
2022/05/15 00:09:01;;;;;;;3.00;1.60;;;;;;;15.09;53.84;96980.47;6304384;22;20016;-79
2022/05/15 00:11:31;;;;;;;3.45;1.80;;;;;;;15.09;54.65;96983.09;6304640;22;20004;-78
2022/05/15 00:14:03;;;;;;;3.85;1.80;;;;;;;15.07;53.63;96974.59;6302643;22;20079;-79
2022/05/15 00:16:33;;;;;;;2.42;1.60;;;;;;;15.10;58.20;96979.44;6273886;23;20015;-79
2022/05/15 00:19:06;;;;;;;3.13;2.00;;;;;;;15.11;57.42;96975.81;6273473;23;20004;-79
2022/05/15 00:21:38;;;;;;;3.10;2.00;;;;;;;15.12;56.10;96972.16;6273578;22;20008;-78
2022/05/15 00:24:09;;;;;;;3.63;1.98;;;;;;;15.10;55.79;96970.75;6273447;22;20027;-81
2022/05/15 00:29:37;;;;;;;3.17;1.92;;;;;;;15.01;55.35;96970.94;6275545;22;20010;-83
2022/05/15 00:35:09;;;;;;;4.07;1.50;;;;;;;14.93;53.79;96968.50;6285836;22;20023;-81
2022/05/15 00:38:26;;;;;;;3.83;1.88;;;;;;;14.87;53.66;96969.31;6275419;22;20023;-81
2022/05/15 00:41:02;;;;;;;3.88;2.00;;;;;;;14.78;53.76;96955.56;6272615;22;20051;-81
2022/05/15 00:43:53;;;;;;;2.53;1.77;;;;;;;14.76;54.60;96964.66;6274379;22;20008;-82
2022/05/15 00:46:34;;;;;;;3.42;2.22;;;;;;;14.79;60.70;96967.69;6274772;22;20008;-82
2022/05/15 00:49:19;;;;;;;2.42;2.17;;;;;;;14.89;65.77;96971.72;6275005;22;20007;-81
2022/05/15 00:54:33;;;;;;;5.60;2.80;;;;;;;14.93;59.84;96968.50;6289522;22;20015;-78
2022/05/15 00:57:10;;;;;;;5.35;2.60;;;;;;;14.86;56.32;96972.94;6273013;23;20016;-78
2022/05/15 00:59:51;;;;;;;3.22;2.70;;;;;;;14.76;55.26;96962.03;6273318;23;20054;-78
2022/05/15 01:02:25;;;;;;;3.03;2.50;;;;;;;14.70;56.31;96968.88;6272980;22;20020;-78
2022/05/15 01:05:02;;;;;;;3.20;2.22;;;;;;;14.67;55.82;96960.56;6273867;22;20459;-79
2022/05/15 01:07:33;;;;;;;4.88;2.28;;;;;;;14.63;55.91;96968.06;6273238;23;20020;-78
2022/05/15 01:10:13;;;;;;;4.20;2.97;;;;;;;14.57;56.12;96958.34;6272653;23;20008;-78
2022/05/15 01:12:54;;;;;;;4.43;2.40;;;;;;;14.56;59.47;96962.78;6273778;23;20008;-80
2022/05/15 01:15:28;;;;;;;5.15;2.70;;;;;;;14.58;59.86;96952.91;6272851;22;20000;-79
2022/05/15 01:18:02;;;;;;;3.20;2.80;;;;;;;14.57;60.34;96958.34;6271946;23;20077;-79
2022/05/15 01:20:40;;;;;;;5.00;2.90;;;;;;;14.48;57.48;96954.25;6273032;23;20038;-78
2022/05/15 01:23:17;;;;;;;;;;;;;;;14.42;57.29;96948.75;6274055;22;20076;-79
2022/05/15 01:25:52;;;;;;;4.10;3.10;;;;;;;14.45;61.66;96954.63;6273520;22;19964;-80
2022/05/15 01:28:28;;;;;;;3.10;2.80;;;;;;;14.45;59.60;96952.00;6273244;22;20024;-80
2022/05/15 01:30:58;;;;;;;5.05;2.50;;;;;;;14.37;58.66;96948.56;6273724;23;20056;-80
2022/05/15 01:33:29;;;;;;;3.10;2.78;;;;;;;14.37;63.14;96948.56;6272034;22;20008;-80
2022/05/15 01:36:00;;;;;;;4.03;2.60;;;;;;;14.35;61.91;96940.06;6272848;22;20032;-79
2022/05/15 01:38:35;;;;;;;3.70;2.70;;;;;;;14.39;64.19;96938.69;6247380;23;20020;-79
2022/05/15 01:41:12;;;;;;;2.70;2.50;;;;;;;14.42;64.96;96940.88;6273721;23;20036;-78
2022/05/15 01:43:47;;;;;;;3.38;2.60;;;;;;;14.38;60.46;96944.91;6272801;23;20028;-78
2022/05/15 01:46:18;;;;;;;4.90;2.90;;;;;;;14.37;63.97;96943.31;6272794;23;20043;-78
2022/05/15 01:48:51;;;;;;;5.80;4.18;;;;;;;14.41;65.59;96949.78;6273361;22;20023;-80
2022/05/15 01:51:20;;;;;;;;;;;;;;;14.39;61.35;96945.75;6273767;22;20067;-79
2022/05/15 01:53:52;;;;;;;6.43;3.17;;;;;;;14.34;64.89;96948.97;6272323;22;19943;-79
2022/05/15 01:56:22;;;;;;;3.72;3.28;;;;;;;14.28;60.12;96941.88;6272399;22;20004;-78
2022/05/15 01:58:52;;;;;;;8.63;3.30;;;;;;;14.24;59.72;96945.09;6273129;23;20036;-78
2022/05/15 02:01:25;;;;;;;4.93;3.08;;;;;;;14.18;59.02;96946.66;6272702;22;20042;-79
2022/05/15 02:03:58;;;;;;;5.47;2.63;;;;;;;14.13;58.83;96949.09;6272451;22;20023;-80
2022/05/15 02:06:33;;;;;;;6.40;3.88;;;;;;;14.16;65.26;96951.28;6273303;22;20012;-79
2022/05/15 02:09:10;;;;;;;6.22;3.50;;;;;;;14.19;67.09;96949.09;6273194;22;20007;-78
2022/05/15 02:11:41;;;;;;;5.85;3.50;;;;;;;14.19;61.28;96941.22;6273708;22;20027;-81
2022/05/15 02:14:12;;;;;;;3.92;3.10;;;;;;;14.12;59.78;96939.56;6273823;22;20051;-79
2022/05/15 02:16:44;;;;;;;4.93;3.40;;;;;;;14.05;58.97;96938.75;6273489;22;20008;-78
2022/05/15 02:19:13;;;;;;;4.68;3.80;;;;;;;13.98;58.72;96934.28;6274011;22;20020;-80
2022/05/15 02:21:44;;;;;;;3.78;3.00;;;;;;;13.94;58.60;96940.91;6273795;22;20047;-80
2022/05/15 02:24:15;;;;;;;4.40;3.50;;;;;;;13.97;65.80;96945.78;6273996;22;20004;-80
2022/05/15 02:26:47;;;;;;;4.47;3.47;;;;;;;14.01;65.41;96939.16;6272803;22;20028;-79
2022/05/15 02:29:17;;;;;;;5.80;3.53;;;;;;;13.92;60.29;96937.66;6272967;23;20060;-80
2022/05/15 02:31:48;;;;;;;5.20;3.55;;;;;;;13.86;64.78;96937.63;6273258;22;20016;-80
2022/05/15 02:34:18;;;;;;;4.95;2.92;;;;;;;13.86;61.99;96930.56;6273014;22;20023;-79
2022/05/15 02:36:47;;;;;;;5.18;3.33;;;;;;;13.84;60.76;96937.84;6272093;22;20012;-79
2022/05/15 02:39:17;;;;;;;5.63;3.65;;;;;;;13.85;63.91;96934.22;6272479;22;20030;-78
2022/05/15 02:41:51;;;;;;;4.65;3.25;;;;;;;13.81;60.34;96938.22;6272352;23;20008;-79
2022/05/15 02:44:23;;;;;;;5.80;3.42;;;;;;;13.80;65.39;96941.84;6272428;22;20024;-79
2022/05/15 02:46:54;;;;;;;4.97;3.22;;;;;;;13.76;61.26;96938.00;6271958;22;20063;-78
2022/05/15 02:52:15;;;;;;;4.63;3.72;;;;;;;13.70;62.22;96925.66;6272700;23;20035;-79
2022/05/15 02:54:48;;;;;;;5.72;3.55;;;;;;;13.66;60.52;96927.84;6271795;22;20030;-80
2022/05/15 02:57:21;;;;;;;4.78;3.20;;;;;;;13.55;60.11;96931.81;6271544;23;20008;-80
2022/05/15 02:59:50;;;;;;;4.38;3.60;;;;;;;13.57;66.72;96936.88;6272307;23;20008;-79
2022/05/15 03:02:22;;;;;;;4.65;3.45;;;;;;;13.59;63.61;96940.09;6271723;22;20080;-80
2022/05/15 03:04:51;;;;;;;5.70;3.67;;;;;;;13.58;65.12;96947.19;6271912;22;20020;-78
2022/05/15 03:07:21;;;;;;;6.47;3.40;;;;;;;13.53;61.46;96935.63;6271857;23;20016;-80
2022/05/15 03:09:53;;;;;;;4.32;3.38;;;;;;;13.46;61.53;96938.22;6272325;23;20039;-79
2022/05/15 03:12:23;;;;;;;3.55;2.63;;;;;;;13.49;63.50;96937.84;6272124;22;20030;-80
2022/05/15 03:14:52;;;;;;;5.25;3.50;;;;;;;13.53;62.97;96941.69;6271997;22;20024;-78
2022/05/15 03:17:21;;;;;;;4.20;3.47;;;;;;;13.51;63.71;96938.47;6271019;22;20023;-78
2022/05/15 03:19:51;;;;;;;5.85;3.58;;;;;;;13.44;60.65;96937.59;6272343;22;20009;-79
2022/05/15 03:22:20;;;;;;;4.07;3.67;;;;;;;13.39;60.77;96932.13;6271973;22;20020;-80
2022/05/15 03:24:49;;;;;;;4.07;3.28;;;;;;;13.41;64.87;96927.50;6272085;22;20042;-78
2022/05/15 03:27:19;;;;;;;5.93;3.78;;;;;;;13.42;64.95;96931.72;6271892;22;20063;-80
2022/05/15 03:29:51;;;;;;;6.90;3.78;;;;;;;13.45;64.14;96928.75;6272306;23;20012;-78
2022/05/15 03:32:23;;;;;;;5.40;3.90;;;;;;;13.46;66.95;96930.34;6272423;22;20008;-78
2022/05/15 03:34:52;;;;;;;4.55;3.60;;;;;;;13.47;67.85;96937.22;6273641;22;20020;-79
2022/05/15 03:37:22;;;;;;;4.53;3.30;;;;;;;13.46;64.66;96929.53;6273274;22;20027;-79
2022/05/15 03:39:53;;;;;;;4.95;3.65;;;;;;;13.37;62.43;96931.50;6273893;22;20030;-80
2022/05/15 03:42:25;;;;;;;6.60;3.30;;;;;;;13.32;62.96;96928.66;6274172;23;20023;-80
2022/05/15 03:44:56;;;;;;;4.88;3.38;;;;;;;13.32;65.75;96939.13;6274225;22;20020;-79
2022/05/15 03:47:26;;;;;;;4.10;3.67;;;;;;;13.35;66.59;96941.38;6273707;23;20027;-80
2022/05/15 03:49:55;;;;;;;6.03;3.80;;;;;;;13.28;62.72;96943.94;6274094;22;20068;-79
2022/05/15 03:52:23;;;;;;;6.15;3.88;;;;;;;13.16;61.71;96950.66;6273381;22;20099;-78
2022/05/15 03:54:53;;;;;;;5.03;3.60;;;;;;;13.02;61.27;96949.75;6273496;22;20000;-80
2022/05/15 03:57:25;;;;;;;6.45;3.40;;;;;;;12.94;61.33;96939.38;6273508;22;20016;-79
2022/05/15 03:59:54;;;;;;;5.75;3.65;;;;;;;12.93;61.93;96945.63;6272016;23;20020;-78
2022/05/15 04:02:23;;;;;;;4.93;4.40;;;;;;;13.01;68.12;96942.88;6273059;22;20050;-79
2022/05/15 04:04:53;;;;;;;5.57;3.70;;;;;;;13.00;63.31;96941.25;6273020;22;20004;-80
2022/05/15 04:07:25;;;;;;;5.75;3.50;;;;;;;12.92;62.53;96944.84;6272952;22;20004;-79
2022/05/15 04:09:53;;;;;;;4.50;4.10;;;;;;;12.89;62.00;96952.25;6273521;22;20016;-79
2022/05/15 04:12:24;;;;;;;5.50;3.80;;;;;;;12.89;63.75;96950.44;6273940;22;20025;-78
2022/05/15 04:14:53;;;;;;;6.65;3.92;;;;;;;12.98;68.47;96945.88;6273258;22;20020;-79
2022/05/15 04:17:22;;;;;;;4.72;3.85;;;;;;;13.05;68.29;96951.97;6273482;22;20039;-79
2022/05/15 04:19:53;;;;;;;7.03;4.32;;;;;;;13.11;68.07;96947.78;6273078;23;20024;-80
2022/05/15 04:22:21;;;;;;;4.55;3.58;;;;;;;13.12;66.20;96946.81;6272494;22;20031;-80
2022/05/15 04:24:50;;;;;;;7.10;3.75;;;;;;;13.15;65.69;96954.28;6273149;22;20019;-80
2022/05/15 04:27:18;;;;;;;6.72;3.85;;;;;;;13.17;67.50;96953.09;6272559;22;20020;-78
2022/05/15 04:29:48;;;;;;;6.57;4.07;;;;;;;13.22;67.43;96956.94;6273051;22;20047;-79
2022/05/15 04:32:17;;;;;;;6.60;3.20;;;;;;;13.23;65.62;96955.94;6273309;23;20036;-79
2022/05/15 04:34:45;;;;;;;4.72;3.38;;;;;;;13.23;64.44;96961.19;6272746;22;20004;-79
2022/05/15 04:37:14;;;;;;;6.53;4.15;;;;;;;13.23;67.04;96962.00;6272725;22;20018;-78
2022/05/15 04:39:42;;;;;;;7.85;4.07;;;;;;;13.23;64.03;96961.19;6273370;22;20020;-79
2022/05/15 04:42:11;;;;;;;4.00;3.33;;;;;;;13.24;63.32;96960.19;6273391;22;20004;-79
2022/05/15 04:44:39;;;;;;;5.00;3.75;;;;;;;13.27;66.80;96965.03;6273342;22;20024;-79
2022/05/15 04:47:09;;;;;;;5.60;3.30;;;;;;;13.29;63.87;96965.69;6272475;22;20000;-80
2022/05/15 04:49:38;;;;;;;5.30;3.20;;;;;;;13.29;63.43;96960.47;6272389;23;20024;-78
2022/05/15 04:52:06;;;;;;;7.10;2.72;;;;;;;13.34;64.17;96966.75;6272809;22;20027;-78
2022/05/15 04:54:35;;;;;;;3.35;2.97;;;;;;;13.38;65.45;96964.56;6272454;22;20396;-79
2022/05/15 04:57:03;;;;;;;6.05;3.75;;;;;;;13.41;65.66;96964.19;6272492;22;20004;-79
2022/05/15 04:59:32;;;;;;;4.53;2.70;;;;;;;13.39;62.96;96961.75;6272860;22;20008;-81
2022/05/15 05:02:03;;;;;;;4.15;3.35;;;;;;;13.39;66.69;96966.19;6272940;22;20020;-80
2022/05/15 05:04:33;;;;;;;4.18;3.50;;;;;;;13.43;68.22;96959.56;6273002;22;20008;-78
2022/05/15 05:07:01;;;;;;;4.63;3.20;;;;;;;13.47;67.99;96958.19;6271928;22;20004;-79
2022/05/15 05:09:30;;;;;;;8.60;5.15;;;;;;;13.51;66.60;96954.19;6272871;22;20456;-79
2022/05/15 05:11:58;;;;;;;17.27;10.98;;;;;;;13.52;65.39;96960.25;6272916;22;20020;-77
2022/05/15 05:14:29;;;;;;;7.65;4.75;;;;;;;13.53;67.07;96952.16;6272299;22;20020;-80
2022/05/15 05:16:58;;;;;;;5.95;3.80;;;;;;;13.62;70.64;96957.25;6272325;23;20060;-80
2022/05/15 05:19:26;;;;;;;5.18;3.63;;;;;;;13.70;70.03;96957.91;6272696;22;20004;-79
2022/05/15 05:21:56;;;;;;;5.72;3.60;;;;;;;13.65;64.96;96964.75;6272886;22;20085;-78
2022/05/15 05:24:24;;;;;;;4.63;2.78;;;;;;;13.64;68.32;96969.16;6272003;22;20004;-78
2022/05/15 05:26:52;;;;;;;4.40;3.70;;;;;;;13.68;70.65;96962.53;6272278;22;20020;-79
2022/05/15 05:29:21;;;;;;;4.40;3.55;;;;;;;13.77;72.18;96978.94;6272000;22;20020;-79
2022/05/15 05:31:49;;;;;;;4.65;3.42;;;;;;;13.80;70.27;96968.06;6272721;22;20059;-80
2022/05/15 05:34:18;;;;;;;3.80;3.30;;;;;;;13.83;68.18;96972.94;6272683;22;20027;-80
2022/05/15 05:36:47;;;;;;;6.93;3.58;;;;;;;13.81;65.49;96969.69;6271353;22;20046;-79
2022/05/15 05:39:18;;;;;;;5.13;3.20;;;;;;;13.77;64.04;96969.28;6272715;22;20031;-79
2022/05/15 05:41:46;;;;;;;4.43;3.08;;;;;;;13.80;66.49;96965.47;6272197;23;20023;-78
2022/05/15 05:44:14;;;;;;;6.60;3.53;;;;;;;13.90;70.27;96963.28;6272300;22;20004;-79
2022/05/15 05:46:42;;;;;;;5.35;3.60;;;;;;;13.98;70.56;96965.75;6272002;22;20019;-79
2022/05/15 05:49:11;;;;;;;4.32;3.72;;;;;;;13.98;66.10;96965.75;6271293;22;20023;-80
2022/05/15 05:51:39;;;;;;;6.07;4.03;;;;;;;13.99;65.68;96974.41;6272234;22;20047;-78
2022/05/15 05:54:07;;;;;;;7.10;3.83;;;;;;;14.01;65.92;96965.38;6272317;22;20024;-80
2022/05/15 05:56:37;;;;;;;4.65;3.92;;;;;;;14.05;66.75;96970.22;6271003;22;20016;-79
2022/05/15 05:59:06;;;;;;;7.45;4.25;;;;;;;14.15;70.02;96975.94;6271317;22;20024;-79
2022/05/15 06:01:34;;;;;;;6.90;4.60;;;;;;;14.23;70.38;96973.13;6274378;22;20030;-83
2022/05/15 06:06:56;;;;;;;8.48;5.15;;;;;;;14.34;68.48;96975.22;6273814;22;20011;-83
2022/05/15 06:09:26;;;;;;;5.78;4.72;;;;;;;14.39;70.73;96972.78;6274358;22;20012;-83
2022/05/15 06:12:02;;;;;;;6.07;4.00;;;;;;;14.42;66.72;96974.22;6248793;22;20072;-82
2022/05/15 06:14:32;;;;;;;6.63;4.03;;;;;;;14.47;67.33;96976.25;6274432;22;20008;-83
2022/05/15 06:17:08;;;;;;;5.65;3.45;;;;;;;14.54;68.81;96984.94;6274044;22;20004;-84
2022/05/15 06:23:06;;;;;;;5.55;4.20;;;;;;;14.70;67.85;96983.81;6303380;22;20019;-79
2022/05/15 06:28:33;;;;;;;10.88;3.65;;;;;;;14.76;63.95;96983.84;6242688;22;20023;-80
2022/05/15 06:31:05;;;;;;;6.60;3.87;;;;;;;14.83;63.02;96984.66;6242004;23;20020;-79
2022/05/15 06:33:37;;;;;;;5.55;3.30;;;;;;;14.89;62.56;96982.22;6242649;23;20067;-81
2022/05/15 06:36:09;;;;;;;3.63;3.17;;;;;;;14.97;62.28;96982.84;6240816;23;20330;-81
2022/05/15 06:38:40;;;;;;;4.35;2.92;;;;;;;15.05;61.80;96981.88;6241032;23;20025;-78
2022/05/15 06:41:15;;;;;;;6.07;2.88;;;;;;;15.14;61.49;96970.16;6218342;23;20019;-79
2022/05/15 06:43:46;;;;;;;4.65;3.60;;;;;;;15.22;60.79;96972.59;6243034;23;20004;-79
2022/05/15 06:46:17;;;;;;;6.07;3.72;;;;;;;15.33;60.53;96971.16;6241758;22;20012;-80
2022/05/15 06:48:53;;;;;;;5.03;3.60;;;;;;;15.42;60.41;96963.88;6240729;22;20032;-79
2022/05/15 07:03:16;;;;;;;5.07;3.08;;;;;;;16.03;59.02;96963.59;6281714;22;20003;-79
2022/05/15 07:05:50;;;;;;;5.95;2.65;;;;;;;16.14;59.96;96969.25;6303490;22;20028;-82
2022/05/15 07:08:24;;;;;;;4.68;3.00;;;;;;;16.26;59.08;96981.53;6300651;22;20016;-79
2022/05/15 07:20:06;;;;;;;4.65;2.67;;;;;;;16.82;60.20;96972.19;6213835;23;20021;-79
2022/05/15 07:22:40;;;;;;;4.63;2.40;;;;;;;16.94;59.31;96976.78;6213938;23;20075;-80
2022/05/15 07:25:14;;;;;;;2.85;2.25;;;;;;;17.06;58.52;96972.44;6214229;23;20025;-78
2022/05/15 07:27:48;;;;;;;3.63;2.25;;;;;;;17.20;58.19;96973.13;6212447;23;20025;-81
2022/05/15 07:30:22;;;;;;;4.65;2.78;;;;;;;17.32;58.07;96975.88;6213784;23;20017;-80
2022/05/15 07:32:56;;;;;;;5.15;2.92;;;;;;;17.46;57.10;96974.75;6213679;23;20044;-81
2022/05/15 07:35:42;;;;;;;7.30;2.28;;;;;;;17.62;56.40;96970.75;6212920;23;20025;-79
2022/05/15 07:38:15;;;;;;;3.53;2.22;;;;;;;17.77;57.44;96968.56;6213351;23;20032;-79
2022/05/15 07:40:45;;;;;;;6.95;3.72;;;;;;;17.94;55.28;96973.34;6213876;23;20032;-79
2022/05/15 07:43:18;;;;;;;3.35;2.13;;;;;;;18.10;53.54;96970.09;6213036;23;20029;-79
2022/05/15 07:45:50;;;;;;;2.88;1.85;;;;;;;18.28;52.88;96975.38;6213947;23;20029;-81
2022/05/15 07:48:20;;;;;;;2.88;2.28;;;;;;;18.44;51.34;96963.41;6213049;23;20040;-78
2022/05/15 07:50:58;;;;;;;4.45;1.30;;;;;;;18.61;49.30;96963.59;6213627;23;20025;-79
2022/05/15 07:53:30;;;;;;;2.63;1.50;;;;;;;18.76;49.07;96959.72;6213907;23;20017;-79
2022/05/15 07:56:09;;;;;;;5.25;1.63;;;;;;;18.92;47.40;96969.69;6213932;23;20017;-80
2022/05/15 07:58:50;;;;;;;6.15;1.58;;;;;;;19.12;46.35;96958.81;6214089;23;20096;-80
2022/05/15 08:01:29;;;;;;;1.52;1.25;;;;;;;19.30;45.11;96956.06;6214165;23;20061;-79
2022/05/15 08:04:22;;;;;;;1.75;1.30;;;;;;;19.50;44.91;96953.13;6190442;23;20009;-80
2022/05/15 08:15:55;;;;;;;4.57;1.02;;;;;;;20.11;43.77;96953.66;6291088;22;20007;-82
2022/05/15 08:44:56;;;;;;;1.50;1.40;;;;;;;21.42;42.82;96961.88;6247168;22;20042;-78
2022/05/15 08:50:59;;;;;;;1.65;1.25;;;;;;;21.56;41.31;96955.19;6281751;22;20063;-80
2022/05/15 08:53:52;;;;;;;2.50;1.03;;;;;;;21.65;40.67;96953.75;6305437;22;20046;-79
2022/05/15 08:56:42;;;;;;;8.32;1.35;;;;;;;21.73;41.06;96955.16;6273371;22;20027;-80
2022/05/15 08:59:26;;;;;;;2.60;1.15;;;;;;;21.83;40.90;96962.47;6272557;23;20019;-80
2022/05/15 09:07:00;;;;;;;3.40;1.02;;;;;;;21.99;39.82;96964.28;6275208;22;20011;-82
2022/05/15 09:09:39;;;;;;;4.10;1.10;;;;;;;22.11;43.65;96959.66;6305586;22;20023;-82
2022/05/15 09:12:17;;;;;;;3.00;1.05;;;;;;;22.17;38.00;96960.50;6302477;22;20049;-80
2022/05/15 09:15:00;;;;;;;5.13;1.15;;;;;;;22.24;38.29;96955.03;6289675;22;20024;-81
2022/05/15 09:17:45;;;;;;;1.92;1.02;;;;;;;22.31;37.65;96950.38;6246749;23;20031;-79
2022/05/15 09:20:22;;;;;;;3.08;1.30;;;;;;;22.38;38.06;96948.31;6272940;22;20027;-79
2022/05/15 09:23:04;;;;;;;3.20;1.55;;;;;;;22.47;37.29;96948.69;6272834;23;20027;-81
2022/05/15 09:25:52;;;;;;;1.75;0.95;;;;;;;22.52;36.32;96941.56;6271267;22;20024;-81
2022/05/15 09:28:23;;;;;;;3.15;1.20;;;;;;;22.59;37.99;96944.03;6270804;23;20031;-80
2022/05/15 09:30:52;;;;;;;2.45;1.35;;;;;;;22.65;36.69;96945.66;6265624;23;20016;-83
2022/05/15 09:33:26;;;;;;;3.67;1.17;;;;;;;22.73;36.85;96941.78;6263238;22;20587;-83
2022/05/15 09:36:19;;;;;;;3.83;1.10;;;;;;;22.81;37.18;96946.66;6261564;22;20030;-83
2022/05/15 09:38:50;;;;;;;4.85;0.82;;;;;;;22.88;37.56;96947.22;6265904;22;20024;-83
2022/05/15 09:44:07;;;;;;;2.35;1.02;;;;;;;23.02;37.43;96953.78;6269756;22;20023;-83
2022/05/15 09:46:39;;;;;;;3.10;1.02;;;;;;;23.09;35.63;96945.59;6269952;22;20080;-83
2022/05/15 09:49:17;;;;;;;2.78;1.27;;;;;;;23.13;35.55;96936.03;6267526;23;20024;-83
2022/05/15 09:51:52;;;;;;;4.90;1.20;;;;;;;23.20;36.12;96944.63;6257398;23;20083;-83
2022/05/15 09:54:41;;;;;;;5.47;1.40;;;;;;;23.26;35.67;96944.66;6259959;22;20016;-83
2022/05/15 09:57:14;;;;;;;2.10;1.00;;;;;;;23.30;36.65;96946.56;6256337;23;20024;-83
2022/05/15 09:59:43;;;;;;;3.63;1.20;;;;;;;23.35;35.23;96943.13;6255568;23;20024;-80
2022/05/15 10:02:20;;;;;;;3.15;1.00;;;;;;;23.40;34.76;96946.63;6258880;22;20024;-80
2022/05/15 10:04:52;;;;;;;1.88;1.08;;;;;;;23.43;35.20;96946.09;6263922;22;20475;-80
2022/05/15 10:07:34;;;;;;;;;;;;;;;23.48;35.82;96936.56;6268476;22;20024;-81
2022/05/15 10:10:47;;;;;;;6.47;1.00;;;;;;;23.51;35.11;96941.38;6271167;23;19915;-79
2022/05/15 10:13:31;;;;;;;2.88;1.35;;;;;;;23.53;34.43;96933.94;6268545;22;20020;-80
2022/05/15 10:16:07;;;;;;;3.73;1.73;;;;;;;23.58;34.99;96931.31;6271899;22;20045;-79
2022/05/15 10:18:48;;;;;;;3.60;0.90;;;;;;;23.63;34.77;96928.66;6271455;22;20000;-81
2022/05/15 10:21:17;;;;;;;3.42;1.00;;;;;;;23.67;34.78;96919.09;6273405;22;20062;-82
2022/05/15 10:23:54;;;;;;;3.28;1.20;;;;;;;23.73;36.53;96919.94;6272677;22;20020;-82
2022/05/15 10:26:28;;;;;;;3.28;1.08;;;;;;;23.77;34.67;96919.19;6272301;22;20012;-81
2022/05/15 10:29:05;;;;;;;3.20;1.17;;;;;;;23.83;35.61;96917.34;6272971;22;20008;-82
2022/05/15 10:31:38;;;;;;;1.85;1.10;;;;;;;23.89;34.67;96918.19;6271441;22;20020;-82
2022/05/15 10:34:12;;;;;;;1.15;1.02;;;;;;;23.93;35.98;96906.75;6272357;22;20016;-82
2022/05/15 10:37:01;;;;;;;2.55;1.27;;;;;;;23.97;33.65;96907.84;6270812;22;20518;-83
2022/05/15 10:39:45;;;;;;;3.15;1.10;;;;;;;24.04;33.78;96907.59;6285239;22;20015;-80
2022/05/15 10:42:31;;;;;;;4.82;1.73;;;;;;;24.07;33.32;96912.41;6303832;22;20037;-81
2022/05/15 10:58:36;;;;;;;4.38;1.58;;;;;;;24.27;33.22;96891.16;6171472;23;20036;-81
2022/05/15 11:01:21;;;;;;;1.85;1.40;;;;;;;24.30;32.78;96889.03;6175627;23;20037;-80
2022/05/15 11:04:03;;;;;;;2.60;1.40;;;;;;;24.33;32.58;96888.50;6167625;23;20069;-81
2022/05/15 11:06:58;;;;;;;3.08;1.52;;;;;;;24.34;32.54;96885.56;6169898;23;20032;-81
2022/05/15 11:09:56;;;;;;;3.50;2.17;;;;;;;24.36;33.38;96887.97;6170469;23;20025;-81
2022/05/15 11:13:13;;;;;;;5.00;1.40;;;;;;;24.39;33.71;96877.59;6175761;23;20033;-81
2022/05/15 11:20:01;;;;;;;4.40;1.33;;;;;;;24.46;33.53;96880.00;6194390;23;20020;-79
2022/05/15 11:44:12;;;;;;;2.78;1.17;;;;;;;24.57;30.51;96857.63;6210494;23;20036;-78
2022/05/15 12:45:44;;;;;;;3.97;1.65;;;;;;;25.25;30.40;96805.84;6200506;23;20035;-80
2022/05/15 13:01:03;;;;;;;3.00;0.70;;;;;;;25.29;29.78;96789.03;6237312;23;20024;-79
2022/05/15 13:03:35;;;;;;;1.60;0.90;;;;;;;25.31;29.49;96790.63;6243237;23;20024;-79
2022/05/15 13:06:08;;;;;;;1.17;0.75;;;;;;;25.32;28.38;96789.56;6245506;23;20017;-80
2022/05/15 13:08:46;;;;;;;2.20;0.93;;;;;;;25.33;29.76;96783.94;6245962;23;20449;-82
2022/05/15 13:11:24;;;;;;;11.43;8.05;;;;;;;25.35;28.65;96784.47;6246388;23;20445;-82
2022/05/15 13:14:43;;;;;;;27.70;19.75;;;;;;;25.36;29.82;96783.41;6221178;23;20028;-82
2022/05/15 13:43:46;;;;;;;4.82;1.27;;;;;;;25.41;28.94;96758.56;6232292;23;20039;-79
2022/05/15 13:46:37;;;;;;;2.95;1.00;;;;;;;25.42;28.67;96760.16;6260325;22;20024;-81
2022/05/15 13:49:14;;;;;;;3.97;0.90;;;;;;;25.43;27.45;96751.06;6268715;22;20020;-81
2022/05/15 13:51:55;;;;;;;2.08;0.80;;;;;;;25.44;28.36;96745.44;6268217;23;20352;-80
2022/05/15 13:54:29;;;;;;;2.50;0.85;;;;;;;25.44;28.83;96748.13;6268354;22;20018;-80
2022/05/15 13:57:11;;;;;;;0.90;0.80;;;;;;;25.44;28.69;96740.13;6268251;23;20012;-79
2022/05/15 14:02:54;;;;;;;2.53;0.90;;;;;;;25.46;28.71;96740.63;6267545;22;20024;-80
2022/05/15 14:05:32;;;;;;;2.70;0.93;;;;;;;25.46;30.67;96734.50;6268822;23;20027;-81
2022/05/15 14:08:38;;;;;;;1.40;0.70;;;;;;;25.44;29.91;96737.44;6268590;22;20063;-80
2022/05/15 14:11:17;;;;;;;1.00;0.90;;;;;;;25.42;30.51;96739.59;6255887;22;20039;-80
2022/05/15 14:14:01;;;;;;;2.38;1.00;;;;;;;25.41;29.82;96735.34;6271731;22;20035;-79
2022/05/15 14:41:18;;;;;;;3.58;1.10;;;;;;;25.31;28.63;96716.66;6262532;23;20034;-82
2022/05/15 14:43:47;;;;;;;3.17;0.80;;;;;;;25.33;28.99;96711.84;6232646;22;20028;-79
2022/05/15 14:46:20;;;;;;;1.45;0.88;;;;;;;25.35;28.67;96715.06;6223274;23;20340;-79
2022/05/15 14:48:49;;;;;;;2.05;0.90;;;;;;;25.35;28.56;96714.25;6230660;23;20020;-79
2022/05/15 14:51:21;;;;;;;2.35;0.85;;;;;;;25.35;28.57;96711.59;6229912;23;20071;-79
2022/05/15 14:53:49;;;;;;;8.80;1.50;;;;;;;25.36;28.83;96707.84;6226952;23;20012;-82
2022/05/15 14:56:19;;;;;;;1.73;1.10;;;;;;;25.35;28.26;96716.94;6227762;23;20095;-82
2022/05/15 14:58:51;;;;;;;3.80;1.40;;;;;;;25.36;33.26;96711.31;6224347;23;20032;-80
2022/05/15 15:01:19;;;;;;;2.47;1.30;;;;;;;25.34;30.67;96705.44;6227190;23;20059;-78
2022/05/15 15:03:47;;;;;;;8.20;4.20;;;;;;;25.34;32.10;96710.78;6228717;23;20480;-78
2022/05/15 15:41:51;;;;;;;2.33;0.80;;;;;;;24.70;32.74;96684.81;6165816;22;20216;-80
2022/05/15 15:47:36;;;;;;;2.83;1.30;;;;;;;24.64;31.78;96676.00;6226081;23;20074;-79
2022/05/15 15:50:04;;;;;;;1.95;0.90;;;;;;;24.63;32.37;96674.44;6226283;23;20025;-80
2022/05/15 15:52:33;;;;;;;3.22;0.90;;;;;;;24.63;31.08;96677.88;6220019;23;20044;-81
2022/05/15 15:55:02;;;;;;;4.50;1.98;;;;;;;24.63;31.13;96669.88;6198468;23;20017;-80
2022/05/15 15:57:31;;;;;;;4.60;1.58;;;;;;;24.61;31.58;96663.22;6207272;23;20062;-80
2022/05/15 16:00:02;;;;;;;3.65;0.90;;;;;;;24.60;30.74;96670.44;6183144;23;20021;-80
2022/05/15 16:02:32;;;;;;;2.10;1.13;;;;;;;24.61;30.20;96660.56;6209501;23;20083;-80
2022/05/15 17:08:46;;;;;;;3.22;0.90;;;;;;;24.50;28.03;96643.78;6131943;23;20080;-83
2022/05/15 17:14:18;;;;;;;3.65;1.42;;;;;;;24.48;28.24;96645.91;6180393;23;20001;-86
2022/05/15 17:50:46;;;;;;;3.50;1.42;;;;;;;24.22;29.92;96637.91;6129408;23;20045;-81
2022/05/15 17:53:24;;;;;;;3.30;1.40;;;;;;;24.21;31.92;96631.00;6239556;23;20017;-80
2022/05/15 17:55:52;;;;;;;2.10;1.15;;;;;;;24.18;32.43;96630.72;6237068;23;20020;-81
2022/05/15 17:58:22;;;;;;;2.65;1.10;;;;;;;24.15;31.91;96634.72;6236735;23;20055;-81
2022/05/15 18:00:50;;;;;;;2.15;1.20;;;;;;;24.13;33.32;96633.41;6236925;23;20020;-81
2022/05/15 18:03:18;;;;;;;4.05;1.50;;;;;;;24.11;33.47;96633.66;6236917;23;20060;-81
2022/05/15 18:05:47;;;;;;;3.83;2.00;;;;;;;24.09;33.32;96633.13;6235942;23;20515;-81
2022/05/15 18:08:15;;;;;;;6.18;1.52;;;;;;;24.05;34.46;96632.06;6236447;23;20020;-81
2022/05/15 18:56:16;;;;;;;2.50;1.25;;;;;;;22.82;37.90;96653.03;6243823;23;20008;-78
2022/05/15 18:59:10;;;;;;;1.33;1.10;;;;;;;22.74;38.01;96650.84;6241200;23;20011;-78
2022/05/15 19:01:50;;;;;;;2.88;1.13;;;;;;;22.65;38.22;96649.75;6241485;23;20032;-78
2022/05/15 19:04:43;;;;;;;3.85;1.02;;;;;;;22.58;38.39;96647.31;6243457;23;20064;-78
2022/05/15 19:10:14;;;;;;;1.73;1.00;;;;;;;22.41;38.71;96653.59;6242531;23;20004;-78
2022/05/15 19:12:48;;;;;;;4.15;1.00;;;;;;;22.34;39.14;96654.88;6243879;23;20023;-79
2022/05/15 19:15:25;;;;;;;;;;;;;;;22.28;38.84;96648.72;6244129;23;20075;-79
2022/05/15 19:17:59;;;;;;;2.53;1.50;;;;;;;22.18;39.39;96654.72;6243327;23;19923;-78
2022/05/15 19:20:46;;;;;;;2.38;1.17;;;;;;;22.11;39.16;96659.47;6242980;23;20032;-79
2022/05/15 19:23:34;;;;;;;4.75;1.60;;;;;;;22.05;39.34;96652.50;6242603;23;20032;-79
2022/05/15 19:26:21;;;;;;;3.40;1.13;;;;;;;21.98;38.86;96666.00;6242929;23;20032;-79
2022/05/15 19:28:56;;;;;;;1.73;1.07;;;;;;;21.92;39.30;96660.91;6243131;23;20000;-80
2022/05/15 19:31:35;;;;;;;1.85;1.30;;;;;;;21.88;39.16;96665.09;6242730;23;20020;-79
2022/05/15 19:34:23;;;;;;;2.45;1.02;;;;;;;21.83;39.59;96668.53;6242062;23;20064;-79